Terminal Aerodrome Forecast
Issued by NWS

Home | Current Version | Previous Version | Text Only | Print | Product List | Glossary On
Versions: 1 2 3 4 5 6 7 8 9 10 11 12
000
FTUS44 KJAN 291120
TAFGTR
TAF
KGTR 291120Z 2912/3012 15008KT P6SM FEW025 BKN080
     FM291600 15014G22KT P6SM VCSH SCT025 BKN050
     FM300100 15010KT P6SM BKN015=

USA.gov is the U.S. government's official web portal to all federal, state and local government web resources and services.